Flight Track Log - Related Links

Times and Time Zones

All times are in EST time to prevent confusion due to time zone crossing. See the EJA583 flight status page for this flight to view local times or setup timezone preferences in your user account.

Time Position Orientation Groundspeed Altitude Reporting Facility
EST Latitude Longitude Course Direction KTS MPH feet Rate Location/Type
Wed 07:32:47 AM 27.9833 -82.0167 24° Northeast 170 196 800  Level Tampa TRACON
Wed 07:33:35 AM 28.0167 -82.0000 24° Northeast 185 213 2,300 3,063 Climbing Tampa TRACON
Wed 07:35:57 AM 28.1244 -82.1042 320° Northwest 249 287 10,500 3,386 Climbing Jacksonville Center
Wed 07:36:57 AM 28.1750 -82.1581 317° Northwest 243 280 13,700 3,100 Climbing Jacksonville Center
Wed 07:37:57 AM 28.2294 -82.2117 319° Northwest 243 280 16,700 2,850 Climbing Jacksonville Center
Wed 07:38:57 AM 28.2861 -82.2656 320° Northwest 249 287 19,400 2,800 Climbing Jacksonville Center
Wed 07:39:57 AM 28.3447 -82.3219 320° Northwest 261 300 22,300 2,700 Climbing Jacksonville Center
Wed 07:40:57 AM 28.4075 -82.3711 325° Northwest 271 312 24,800 1,850 Climbing Jacksonville Center
Wed 07:41:57 AM 28.4725 -82.4250 324° Northwest 283 326 26,000 1,200 Climbing Jacksonville Center
Wed 07:42:57 AM 28.5458 -82.4908 322° Northwest 311 358 27,200 1,550 Climbing Jacksonville Center
Wed 07:43:57 AM 28.6211 -82.5592 321° Northwest 334 384 29,100 1,900 Climbing Jacksonville Center
Wed 07:44:57 AM 28.6903 -82.6250 320° Northwest 334 384 31,000 1,950 Climbing Jacksonville Center
Wed 07:45:57 AM 28.7569 -82.6842 322° Northwest 323 372 33,000 1,900 Climbing Jacksonville Center
Wed 07:46:57 AM 28.8261 -82.7456 322° Northwest 318 366 34,800 1,500 Climbing Jacksonville Center
Wed 07:47:57 AM 28.8950 -82.8094 321° Northwest 318 366 36,000 1,000 Climbing Jacksonville Center
Wed 07:48:57 AM 28.9681 -82.8783 320° Northwest 324 373 36,800 1,200 Climbing Jacksonville Center
Wed 07:49:57 AM 29.0411 -82.9472 321° Northwest 335 386 38,400 1,550 Climbing Jacksonville Center
Wed 07:50:57 AM 29.1119 -83.0114 322° Northwest 335 386 39,900 800 Climbing Jacksonville Center
Wed 07:51:57 AM 29.1725 -83.0853 313° West 327 376 40,000 50 Climbing Jacksonville Center
Wed 07:52:57 AM 29.2119 -83.1781 296° West 321 369 40,000  Level Jacksonville Center
Wed 07:53:57 AM 29.2472 -83.2686 294° West 316 364 40,000  Level Jacksonville Center
Wed 07:54:57 AM 29.2844 -83.3569 296° West 311 358 40,000  Level Jacksonville Center
Wed 07:55:57 AM 29.3217 -83.4450 296° West 311 358 40,000  Level Jacksonville Center
Wed 07:56:57 AM 29.3608 -83.5311 298° West 311 358 40,000  Level Jacksonville Center
Wed 07:57:57 AM 29.3958 -83.6219 294° West 311 358 40,000  Level Jacksonville Center
Wed 07:58:57 AM 29.4350 -83.7106 297° West 311 358 40,000  Level Jacksonville Center
Wed 07:59:57 AM 29.4700 -83.7992 294° West 311 358 40,000  Level Jacksonville Center
Wed 08:00:57 AM 29.5089 -83.8925 296° West 316 364 40,000  Level Jacksonville Center
Wed 08:01:57 AM 29.5458 -83.9811 296° West 316 364 40,000  Level Jacksonville Center
Wed 08:02:57 AM 29.5825 -84.0722 295° West 316 364 40,000  Level Jacksonville Center
Wed 08:03:57 AM 29.6192 -84.1658 294° West 316 364 40,000  Level Jacksonville Center
Wed 08:04:57 AM 29.6558 -84.2525 296° West 316 364 40,000  Level Jacksonville Center
Wed 08:05:57 AM 29.6925 -84.3439 295° West 316 364 40,000  Level Jacksonville Center
Wed 08:06:57 AM 29.7311 -84.4353 296° West 316 364 40,000  Level Jacksonville Center
Wed 08:07:57 AM 29.7633 -84.5242 293° West 316 364 40,000  Level Jacksonville Center
Wed 08:08:57 AM 29.8019 -84.6111 297° West 316 364 40,000  Level Jacksonville Center
Wed 08:09:57 AM 29.8403 -84.7028 296° West 316 364 40,000  Level Jacksonville Center
Wed 08:10:57 AM 29.8767 -84.7919 295° West 316 364 40,000  Level Jacksonville Center
Wed 08:11:57 AM 29.9128 -84.8839 294° West 316 364 40,000  Level Jacksonville Center
Wed 08:12:57 AM 29.9489 -84.9733 295° West 316 364 40,000  Level Jacksonville Center
Wed 08:13:57 AM 29.9850 -85.0653 294° West 316 364 40,000  Level Jacksonville Center
Wed 08:14:57 AM 30.0211 -85.1522 296° West 316 364 40,000  Level Jacksonville Center
Wed 08:15:57 AM 30.0569 -85.2419 295° West 316 364 40,000  Level Jacksonville Center
Wed 08:16:57 AM 30.0928 -85.3342 294° West 316 364 40,000  Level Jacksonville Center
Wed 08:17:57 AM 30.1244 -85.4286 291° West 316 364 40,000  Level Jacksonville Center
Wed 08:18:57 AM 30.1600 -85.5208 294° West 318 366 40,000  Level Jacksonville Center
Wed 08:19:57 AM 30.1961 -85.5986 298° West 304 350 40,000  Level Jacksonville Center
Wed 08:20:57 AM 30.2294 -85.6933 292° West 304 350 40,000  Level Jacksonville Center
Wed 08:21:57 AM 30.2733 -85.7908 298° West 304 350 40,000  Level Jacksonville Center
Wed 08:22:57 AM 30.3067 -85.8783 294° West 299 344 40,000  Level Jacksonville Center
Wed 08:23:57 AM 30.3422 -85.9661 295° West 299 344 40,000  Level Jacksonville Center
Wed 08:24:57 AM 30.3756 -86.0539 294° West 299 344 40,000  Level Jacksonville Center
Wed 08:25:57 AM 30.4108 -86.1417 295° West 299 344 40,000  Level Jacksonville Center
Wed 08:26:57 AM 30.4442 -86.2297 294° West 299 344 40,000  Level Jacksonville Center
Wed 08:27:57 AM 30.4814 -86.3200 296° West 299 344 40,000  Level Jacksonville Center
Wed 08:28:57 AM 30.5122 -86.4103 292° West 299 344 40,000  Level Jacksonville Center
Wed 08:29:57 AM 30.5475 -86.5008 294° West 299 344 40,000  Level Jacksonville Center
Wed 08:30:58 AM 30.5825 -86.5892 295° West 299 344 40,000  Level Jacksonville Center
Wed 08:31:57 AM 30.6172 -86.6822 293° West 299 344 40,000  Level Jacksonville Center
Wed 08:32:57 AM 30.6522 -86.7681 295° West 299 344 40,000  Level Jacksonville Center
Wed 08:33:57 AM 30.6847 -86.8611 292° West 299 344 40,000  Level Jacksonville Center
Wed 08:34:57 AM 30.7197 -86.9494 295° West 299 344 40,000  Level Jacksonville Center
Wed 08:35:57 AM 30.7503 -87.0331 293° West 299 344 40,000  Level Jacksonville Center
Wed 08:37:39 AM 30.8108 -87.1917 294° West 308 354 40,000  Level Houston Center
Wed 08:38:41 AM 30.8450 -87.2825 294° West 307 353 40,000  Level Houston Center
Wed 08:39:43 AM 30.8792 -87.3728 294° West 306 352 40,000  Level Houston Center
Wed 08:40:44 AM 30.9131 -87.4636 294° West 306 352 40,000  Level Houston Center
Wed 08:41:46 AM 30.9475 -87.5519 294° West 301 346 40,000  Level Houston Center
Wed 08:42:48 AM 30.9878 -87.6622 293° West 307 353 40,000  Level Houston Center
Wed 08:43:50 AM 31.0197 -87.7514 293° West 314 361 40,000  Level Houston Center
Wed 08:44:51 AM 31.0553 -87.8436 294° West 313 360 40,000  Level Houston Center
Wed 08:45:53 AM 31.0894 -87.9369 293° West 314 361 40,000  Level Houston Center
Wed 08:46:55 AM 31.1236 -88.0311 293° West 315 362 40,000  Level Houston Center
Wed 08:47:57 AM 31.1664 -88.1433 294° West 317 365 40,000  Level Houston Center
Wed 08:48:59 AM 31.2008 -88.2392 293° West 319 367 40,000  Level Houston Center
Wed 08:50:00 AM 31.2344 -88.3336 293° West 319 367 40,000  Level Houston Center
Wed 08:51:02 AM 31.2689 -88.4294 293° West 320 368 40,000  Level Houston Center
Wed 08:52:04 AM 31.3028 -88.5242 293° West 319 367 40,000  Level Houston Center
Wed 08:53:06 AM 31.3364 -88.6175 293° West 316 364 40,000  Level Houston Center
Wed 08:54:08 AM 31.3772 -88.7297 293° West 313 360 40,000 -488 Level Houston Center
Wed 08:55:09 AM 31.4117 -88.8261 293° West 322 371 39,000 -1,122 Descending Houston Center
Wed 08:56:11 AM 31.4472 -88.9258 293° West 334 384 37,700 -1,355 Descending Houston Center
Wed 08:57:13 AM 31.4819 -89.0242 293° West 329 379 36,200 -1,452 Descending Houston Center
Wed 08:58:15 AM 31.5147 -89.1175 292° West 315 362 34,700 -1,073 Descending Houston Center
Wed 08:59:16 AM 31.5486 -89.2108 293° West 312 359 34,000 -341 Descending Houston Center
Wed 09:00:18 AM 31.5894 -89.3275 292° West 321 369 34,000  Level Houston Center
Wed 09:01:20 AM 31.6236 -89.4275 292° West 327 376 34,000  Level Houston Center
Wed 09:02:22 AM 31.6597 -89.5278 293° West 333 383 34,000 -537 Level Houston Center
Wed 09:03:23 AM 31.6958 -89.6275 293° West 334 384 32,900 -1,366 Descending Houston Center
Wed 09:04:25 AM 31.7325 -89.7289 293° West 336 387 31,200 -1,597 Descending Houston Center
Wed 09:05:27 AM 31.7697 -89.8361 292° West 348 400 29,600 -1,597 Descending Houston Center
Wed 09:06:29 AM 31.8075 -89.9472 292° West 360 414 27,900 -1,742 Descending Houston Center
Wed 09:07:31 AM 31.8519 -90.0781 292° West 361 415 26,000 -1,024 Descending Houston Center
Wed 09:08:32 AM 31.8922 -90.1919 293° West 373 429 25,800 -180 Descending Houston Center
Wed 09:09:11 AM 31.9153 -90.2569 293° West 380 437 25,700 -653 Descending Memphis Center
Wed 09:10:13 AM 31.9558 -90.3756 292° West 388 447 24,700 -1,113 Descending Memphis Center
Wed 09:11:15 AM 32.0058 -90.5225 292° West 399 459 23,400 -1,355 Descending Memphis Center
Wed 09:12:17 AM 32.0469 -90.6414 292° West 395 455 21,900 -1,500 Descending Memphis Center
Wed 09:13:19 AM 32.0856 -90.7550 292° West 382 440 20,300 -1,500 Descending Memphis Center
Wed 09:14:21 AM 32.1247 -90.8683 292° West 376 433 18,800 -1,161 Descending Memphis Center
Wed 09:15:23 AM 32.1619 -90.9806 291° West 370 426 17,900 -1,113 Descending Memphis Center
Wed 09:16:25 AM 32.1986 -91.0914 291° West 365 420 16,500 -1,548 Descending Memphis Center
Wed 09:17:27 AM 32.2422 -91.2247 291° West 364 419 14,700 -1,597 Descending Memphis Center
Wed 09:18:29 AM 32.2803 -91.3367 292° West 366 421 13,200 -823 Descending Memphis Center
Wed 09:19:31 AM 32.3183 -91.4475 292° West 366 421 13,000 -823 Descending Memphis Center
Wed 09:20:33 AM 32.3514 -91.5403 293° West 332 382 11,500 -1,694 Descending Memphis Center
Wed 09:21:35 AM 32.3733 -91.6269 287° West 301 346 9,500 -2,177 Descending Memphis Center
Wed 09:22:37 AM 32.3917 -91.7336 282° West 287 330 7,000 -2,032 Descending Memphis Center
Wed 09:23:39 AM 32.4019 -91.8006 280° West 277 319 5,300 -1,645 Descending Memphis Center
Wed 09:25:00 AM 32.4628 -91.9141 283° West  Level FlightAware Approximate
Wed 09:32:00 AM 32.5000 -92.0333 292° West  Level FlightAware Approximate

Login

Don't have an account? Register now (free) for customized features, flight alerts, and more!